NOZ123 ENVA-ENBR
Flight info
| Callsign | NOZ123 |
|---|---|
| Flight time | 0h 48m |
| Altitude | 34000 |
| Route | OSMUM DCT KEKOD DCT LUNUR |
| Aircraft | B738/M-SDE2E3FGHIRWXY/LB1 |
Departure
| Time | 2026-04-29 12:09 |
|---|---|
| Airport | Trondheim Airport, Værnes (ENVA) |
Arrival
| Time | 2026-04-29 12:58 |
|---|---|
| Airport | Bergen Airport, Flesland (ENBR) |
| Time | Latitude | Longitude | Altitude | Speed | Heading |
|---|---|---|---|---|---|
| 2026-04-29 11:42 | 63.45500 | 10.91663 | 38 ft | 0 kts | 180° |
| 2026-04-29 11:59 | 63.45515 | 10.91663 | 38 ft | 4 kts | 180° |
| 2026-04-29 11:59 | 63.45539 | 10.91664 | 38 ft | 1 kts | 180° |
| 2026-04-29 12:05 | 63.45526 | 10.91688 | 38 ft | 3 kts | 116° |
| 2026-04-29 12:05 | 63.45542 | 10.91740 | 38 ft | 8 kts | 24° |
| 2026-04-29 12:05 | 63.45592 | 10.91777 | 38 ft | 7 kts | 64° |
| 2026-04-29 12:05 | 63.45596 | 10.91899 | 39 ft | 11 kts | 90° |
| 2026-04-29 12:06 | 63.45595 | 10.92169 | 40 ft | 22 kts | 90° |
| 2026-04-29 12:06 | 63.45594 | 10.92516 | 41 ft | 22 kts | 90° |
| 2026-04-29 12:06 | 63.45594 | 10.92855 | 46 ft | 21 kts | 90° |
| 2026-04-29 12:06 | 63.45598 | 10.93183 | 48 ft | 21 kts | 83° |
| 2026-04-29 12:07 | 63.45593 | 10.93502 | 55 ft | 20 kts | 90° |
| 2026-04-29 12:07 | 63.45600 | 10.93804 | 53 ft | 19 kts | 72° |
| 2026-04-29 12:07 | 63.45680 | 10.94021 | 59 ft | 18 kts | 44° |
| 2026-04-29 12:07 | 63.45747 | 10.94130 | 60 ft | 6 kts | 345° |
| 2026-04-29 12:08 | 63.45756 | 10.94063 | 59 ft | 0 kts | 271° |
| 2026-04-29 12:08 | 63.45757 | 10.94031 | 57 ft | 7 kts | 271° |
| 2026-04-29 12:08 | 63.45758 | 10.93444 | 52 ft | 76 kts | 270° |
| 2026-04-29 12:08 | 63.45757 | 10.91723 | 39 ft | 142 kts | 269° |
| 2026-04-29 12:09 | 63.45748 | 10.89371 | 639 ft | 151 kts | 269° |
| 2026-04-29 12:09 | 63.45757 | 10.87008 | 1546 ft | 152 kts | 270° |
| 2026-04-29 12:09 | 63.45764 | 10.84618 | 2251 ft | 165 kts | 271° |
| 2026-04-29 12:09 | 63.45771 | 10.81850 | 2556 ft | 188 kts | 271° |
| 2026-04-29 12:10 | 63.45778 | 10.78875 | 3131 ft | 193 kts | 271° |
| 2026-04-29 12:10 | 63.45783 | 10.75834 | 3766 ft | 198 kts | 271° |
| 2026-04-29 12:10 | 63.45788 | 10.72705 | 4385 ft | 206 kts | 271° |
| 2026-04-29 12:10 | 63.45789 | 10.69490 | 5216 ft | 207 kts | 272° |
| 2026-04-29 12:11 | 63.45786 | 10.66241 | 5981 ft | 211 kts | 272° |
| 2026-04-29 12:11 | 63.45777 | 10.62955 | 6693 ft | 219 kts | 270° |
| 2026-04-29 12:11 | 63.45342 | 10.59481 | 6929 ft | 254 kts | 238° |
| 2026-04-29 12:11 | 63.43887 | 10.56995 | 7492 ft | 277 kts | 206° |
| 2026-04-29 12:12 | 63.42020 | 10.55639 | 8203 ft | 287 kts | 201° |
| 2026-04-29 12:12 | 63.40085 | 10.54369 | 8912 ft | 293 kts | 202° |
| 2026-04-29 12:12 | 63.38129 | 10.52964 | 9645 ft | 298 kts | 205° |
| 2026-04-29 12:12 | 63.36168 | 10.51343 | 10346 ft | 303 kts | 207° |
| 2026-04-29 12:13 | 63.34175 | 10.49611 | 10784 ft | 317 kts | 207° |
| 2026-04-29 12:13 | 63.32042 | 10.47733 | 10954 ft | 341 kts | 207° |
| 2026-04-29 12:13 | 63.29777 | 10.45757 | 11368 ft | 355 kts | 207° |
| 2026-04-29 12:13 | 63.27453 | 10.43757 | 12029 ft | 361 kts | 206° |
| 2026-04-29 12:14 | 63.25097 | 10.41748 | 12773 ft | 365 kts | 207° |
| 2026-04-29 12:14 | 63.22710 | 10.39720 | 13492 ft | 370 kts | 207° |
| 2026-04-29 12:14 | 63.20289 | 10.37665 | 14187 ft | 376 kts | 207° |
| 2026-04-29 12:14 | 63.17830 | 10.35582 | 14871 ft | 380 kts | 207° |
| 2026-04-29 12:15 | 63.15350 | 10.33484 | 15630 ft | 383 kts | 207° |
| 2026-04-29 12:15 | 63.12845 | 10.31371 | 16346 ft | 387 kts | 206° |
| 2026-04-29 12:15 | 63.10313 | 10.29237 | 17049 ft | 391 kts | 206° |
| 2026-04-29 12:15 | 63.07755 | 10.27085 | 17750 ft | 396 kts | 206° |
| 2026-04-29 12:16 | 63.05174 | 10.24920 | 18479 ft | 399 kts | 206° |
| 2026-04-29 12:16 | 63.03447 | 10.23473 | 18906 ft | 402 kts | 206° |
| 2026-04-29 12:16 | 62.99920 | 10.20521 | 19641 ft | 408 kts | 206° |
| 2026-04-29 12:16 | 62.97255 | 10.18297 | 20240 ft | 411 kts | 206° |
| 2026-04-29 12:17 | 62.94578 | 10.16068 | 20867 ft | 414 kts | 206° |
| 2026-04-29 12:17 | 62.92789 | 10.14580 | 21258 ft | 416 kts | 206° |
| 2026-04-29 12:17 | 62.90071 | 10.12322 | 21800 ft | 420 kts | 206° |
| 2026-04-29 12:17 | 62.87318 | 10.10038 | 22363 ft | 424 kts | 206° |
| 2026-04-29 12:18 | 62.84656 | 10.07319 | 22903 ft | 420 kts | 218° |
| 2026-04-29 12:18 | 62.82419 | 10.03308 | 23467 ft | 414 kts | 230° |
| 2026-04-29 12:18 | 62.79769 | 9.97308 | 24170 ft | 415 kts | 233° |
| 2026-04-29 12:18 | 62.78451 | 9.94153 | 24453 ft | 417 kts | 233° |
| 2026-04-29 12:19 | 62.76472 | 9.89475 | 24911 ft | 421 kts | 232° |
| 2026-04-29 12:19 | 62.74417 | 9.84898 | 25356 ft | 425 kts | 230° |
| 2026-04-29 12:19 | 62.72270 | 9.80427 | 25785 ft | 428 kts | 229° |
| 2026-04-29 12:19 | 62.70092 | 9.75955 | 26215 ft | 431 kts | 229° |
| 2026-04-29 12:20 | 62.67948 | 9.71506 | 26643 ft | 433 kts | 229° |
| 2026-04-29 12:20 | 62.65751 | 9.66882 | 27079 ft | 435 kts | 229° |
| 2026-04-29 12:20 | 62.63539 | 9.62363 | 27535 ft | 437 kts | 228° |
| 2026-04-29 12:20 | 62.61293 | 9.58004 | 27963 ft | 441 kts | 226° |
| 2026-04-29 12:21 | 62.58944 | 9.53686 | 28369 ft | 444 kts | 225° |
| 2026-04-29 12:21 | 62.56562 | 9.49390 | 28770 ft | 446 kts | 225° |
| 2026-04-29 12:21 | 62.54171 | 9.45071 | 29167 ft | 449 kts | 225° |
| 2026-04-29 12:21 | 62.51743 | 9.40648 | 29558 ft | 451 kts | 225° |
| 2026-04-29 12:22 | 62.49351 | 9.36253 | 30023 ft | 450 kts | 225° |
| 2026-04-29 12:22 | 62.46981 | 9.31880 | 30709 ft | 444 kts | 225° |
| 2026-04-29 12:22 | 62.44680 | 9.27626 | 31294 ft | 439 kts | 225° |
| 2026-04-29 12:22 | 62.42349 | 9.23315 | 31906 ft | 432 kts | 225° |
| 2026-04-29 12:23 | 62.40080 | 9.19123 | 32536 ft | 426 kts | 225° |
| 2026-04-29 12:23 | 62.37848 | 9.15004 | 33168 ft | 420 kts | 225° |
| 2026-04-29 12:23 | 62.35647 | 9.10950 | 33814 ft | 412 kts | 225° |
| 2026-04-29 12:23 | 62.33507 | 9.07016 | 34249 ft | 411 kts | 225° |
| 2026-04-29 12:24 | 62.31286 | 9.02929 | 34355 ft | 418 kts | 225° |
| 2026-04-29 12:24 | 62.29089 | 8.98890 | 34425 ft | 425 kts | 225° |
| 2026-04-29 12:24 | 62.24505 | 8.90495 | 34428 ft | 441 kts | 225° |
| 2026-04-29 12:25 | 62.19746 | 8.81837 | 34422 ft | 456 kts | 224° |
| 2026-04-29 12:26 | 62.12349 | 8.68481 | 34407 ft | 467 kts | 224° |
| 2026-04-29 12:26 | 62.07417 | 8.59644 | 34405 ft | 458 kts | 224° |
| 2026-04-29 12:27 | 62.02537 | 8.50924 | 34429 ft | 458 kts | 224° |
| 2026-04-29 12:27 | 61.97652 | 8.42217 | 34422 ft | 458 kts | 224° |
| 2026-04-29 12:28 | 61.92754 | 8.33524 | 34438 ft | 460 kts | 224° |
| 2026-04-29 12:28 | 61.87806 | 8.24780 | 34188 ft | 465 kts | 224° |
| 2026-04-29 12:28 | 61.85340 | 8.20442 | 33897 ft | 456 kts | 223° |
| 2026-04-29 12:29 | 61.82954 | 8.16263 | 33613 ft | 447 kts | 223° |
| 2026-04-29 12:29 | 61.80582 | 8.12116 | 33342 ft | 438 kts | 224° |
| 2026-04-29 12:29 | 61.78252 | 8.08047 | 33087 ft | 429 kts | 224° |
| 2026-04-29 12:29 | 61.75991 | 8.04110 | 33154 ft | 417 kts | 224° |
| 2026-04-29 12:30 | 61.73719 | 8.00142 | 32887 ft | 431 kts | 224° |
| 2026-04-29 12:30 | 61.71381 | 7.96055 | 32664 ft | 442 kts | 223° |
| 2026-04-29 12:30 | 61.68988 | 7.91883 | 32407 ft | 449 kts | 223° |
| 2026-04-29 12:30 | 61.66583 | 7.87711 | 32138 ft | 446 kts | 223° |
| 2026-04-29 12:31 | 61.64195 | 7.83590 | 31894 ft | 441 kts | 223° |
| 2026-04-29 12:31 | 61.61832 | 7.79525 | 31694 ft | 437 kts | 223° |
| 2026-04-29 12:31 | 61.59489 | 7.75502 | 31486 ft | 433 kts | 223° |
| 2026-04-29 12:31 | 61.57164 | 7.71514 | 31273 ft | 430 kts | 223° |
| 2026-04-29 12:32 | 61.54855 | 7.67559 | 31067 ft | 427 kts | 223° |
| 2026-04-29 12:32 | 61.52559 | 7.63632 | 30879 ft | 425 kts | 223° |
| 2026-04-29 12:32 | 61.50269 | 7.59718 | 30676 ft | 425 kts | 223° |
| 2026-04-29 12:32 | 61.48002 | 7.55851 | 30476 ft | 425 kts | 223° |
| 2026-04-29 12:33 | 61.45709 | 7.51948 | 30262 ft | 426 kts | 223° |
| 2026-04-29 12:33 | 61.43409 | 7.48043 | 30023 ft | 426 kts | 223° |
| 2026-04-29 12:33 | 61.41107 | 7.44141 | 29795 ft | 426 kts | 223° |
| 2026-04-29 12:33 | 61.38819 | 7.40275 | 29501 ft | 419 kts | 223° |
| 2026-04-29 12:34 | 61.36575 | 7.36496 | 29216 ft | 410 kts | 223° |
| 2026-04-29 12:34 | 61.34370 | 7.32790 | 28927 ft | 403 kts | 223° |
| 2026-04-29 12:34 | 61.32201 | 7.29146 | 28606 ft | 399 kts | 223° |
| 2026-04-29 12:34 | 61.30046 | 7.25526 | 28193 ft | 396 kts | 223° |
| 2026-04-29 12:35 | 61.27917 | 7.21960 | 27815 ft | 392 kts | 223° |
| 2026-04-29 12:35 | 61.25798 | 7.18413 | 27393 ft | 390 kts | 223° |
| 2026-04-29 12:35 | 61.23691 | 7.14895 | 27011 ft | 388 kts | 223° |
| 2026-04-29 12:35 | 61.21590 | 7.11392 | 26600 ft | 386 kts | 223° |
| 2026-04-29 12:36 | 61.19500 | 7.07912 | 26206 ft | 384 kts | 223° |
| 2026-04-29 12:36 | 61.17421 | 7.04459 | 25831 ft | 382 kts | 223° |
| 2026-04-29 12:36 | 61.15343 | 7.01014 | 25437 ft | 381 kts | 223° |
| 2026-04-29 12:36 | 61.13275 | 6.97590 | 25046 ft | 380 kts | 223° |
| 2026-04-29 12:37 | 61.11206 | 6.94173 | 24638 ft | 379 kts | 223° |
| 2026-04-29 12:37 | 61.09144 | 6.90771 | 24252 ft | 378 kts | 223° |
| 2026-04-29 12:37 | 61.07089 | 6.87388 | 23838 ft | 377 kts | 222° |
| 2026-04-29 12:37 | 61.05038 | 6.84017 | 23384 ft | 376 kts | 222° |
| 2026-04-29 12:38 | 61.02995 | 6.80667 | 22965 ft | 374 kts | 222° |
| 2026-04-29 12:38 | 61.00967 | 6.77347 | 22575 ft | 371 kts | 222° |
| 2026-04-29 12:38 | 60.98956 | 6.74059 | 22173 ft | 368 kts | 222° |
| 2026-04-29 12:38 | 60.96959 | 6.70800 | 21797 ft | 365 kts | 222° |
| 2026-04-29 12:39 | 60.94973 | 6.67565 | 21428 ft | 362 kts | 222° |
| 2026-04-29 12:39 | 60.93028 | 6.64399 | 21063 ft | 361 kts | 222° |
| 2026-04-29 12:39 | 60.91063 | 6.61206 | 20687 ft | 360 kts | 222° |
| 2026-04-29 12:39 | 60.89104 | 6.58029 | 20291 ft | 358 kts | 222° |
| 2026-04-29 12:40 | 60.87152 | 6.54866 | 19928 ft | 357 kts | 222° |
| 2026-04-29 12:40 | 60.85202 | 6.51713 | 19551 ft | 356 kts | 222° |
| 2026-04-29 12:40 | 60.83261 | 6.48579 | 19183 ft | 356 kts | 222° |
| 2026-04-29 12:40 | 60.81316 | 6.45443 | 18800 ft | 355 kts | 222° |
| 2026-04-29 12:41 | 60.79375 | 6.42319 | 18385 ft | 355 kts | 222° |
| 2026-04-29 12:41 | 60.77421 | 6.39255 | 18033 ft | 353 kts | 220° |
| 2026-04-29 12:41 | 60.75443 | 6.36326 | 17733 ft | 349 kts | 219° |
| 2026-04-29 12:41 | 60.73469 | 6.33461 | 17388 ft | 346 kts | 219° |
| 2026-04-29 12:42 | 60.71506 | 6.30618 | 17020 ft | 345 kts | 219° |
| 2026-04-29 12:42 | 60.69555 | 6.27785 | 16665 ft | 343 kts | 219° |
| 2026-04-29 12:42 | 60.67615 | 6.24960 | 16327 ft | 341 kts | 219° |
| 2026-04-29 12:42 | 60.65691 | 6.22152 | 16008 ft | 339 kts | 219° |
| 2026-04-29 12:43 | 60.63778 | 6.19360 | 15632 ft | 338 kts | 219° |
| 2026-04-29 12:43 | 60.61871 | 6.16577 | 15309 ft | 336 kts | 219° |
| 2026-04-29 12:43 | 60.59980 | 6.13823 | 15019 ft | 333 kts | 219° |
| 2026-04-29 12:43 | 60.58101 | 6.11083 | 14683 ft | 332 kts | 219° |
| 2026-04-29 12:44 | 60.56228 | 6.08358 | 14374 ft | 330 kts | 219° |
| 2026-04-29 12:44 | 60.54388 | 6.05687 | 14011 ft | 328 kts | 219° |
| 2026-04-29 12:44 | 60.52537 | 6.03003 | 13688 ft | 326 kts | 219° |
| 2026-04-29 12:44 | 60.50695 | 6.00337 | 13362 ft | 324 kts | 219° |
| 2026-04-29 12:45 | 60.48862 | 5.97686 | 13017 ft | 323 kts | 219° |
| 2026-04-29 12:45 | 60.47038 | 5.95051 | 12712 ft | 321 kts | 218° |
| 2026-04-29 12:45 | 60.45244 | 5.92462 | 12573 ft | 311 kts | 218° |
| 2026-04-29 12:45 | 60.44069 | 5.90772 | 12538 ft | 304 kts | 218° |
| 2026-04-29 12:46 | 60.42318 | 5.88258 | 12384 ft | 298 kts | 218° |
| 2026-04-29 12:46 | 60.40636 | 5.85843 | 12123 ft | 295 kts | 218° |
| 2026-04-29 12:46 | 60.38963 | 5.83438 | 11843 ft | 295 kts | 218° |
| 2026-04-29 12:46 | 60.37291 | 5.81039 | 11562 ft | 294 kts | 218° |
| 2026-04-29 12:47 | 60.35631 | 5.78660 | 11320 ft | 292 kts | 218° |
| 2026-04-29 12:47 | 60.33978 | 5.76296 | 11077 ft | 291 kts | 218° |
| 2026-04-29 12:47 | 60.32328 | 5.73938 | 10841 ft | 290 kts | 218° |
| 2026-04-29 12:47 | 60.30687 | 5.71597 | 10585 ft | 288 kts | 218° |
| 2026-04-29 12:48 | 60.29051 | 5.69268 | 10326 ft | 286 kts | 218° |
| 2026-04-29 12:48 | 60.27455 | 5.66997 | 10096 ft | 276 kts | 218° |
| 2026-04-29 12:48 | 60.25911 | 5.64810 | 9876 ft | 267 kts | 218° |
| 2026-04-29 12:48 | 60.24412 | 5.62685 | 9596 ft | 260 kts | 218° |
| 2026-04-29 12:49 | 60.22962 | 5.60632 | 9462 ft | 248 kts | 218° |
| 2026-04-29 12:49 | 60.21593 | 5.58694 | 9352 ft | 235 kts | 218° |
| 2026-04-29 12:49 | 60.20289 | 5.56851 | 9229 ft | 224 kts | 218° |
| 2026-04-29 12:49 | 60.19029 | 5.55067 | 8985 ft | 218 kts | 218° |
| 2026-04-29 12:50 | 60.17827 | 5.53370 | 8909 ft | 204 kts | 219° |
| 2026-04-29 12:50 | 60.16680 | 5.51748 | 8577 ft | 204 kts | 219° |
| 2026-04-29 12:50 | 60.15534 | 5.50126 | 8208 ft | 205 kts | 218° |
| 2026-04-29 12:50 | 60.14330 | 5.48424 | 7722 ft | 213 kts | 218° |
| 2026-04-29 12:51 | 60.13125 | 5.46725 | 7332 ft | 214 kts | 218° |
| 2026-04-29 12:51 | 60.11951 | 5.45082 | 7252 ft | 200 kts | 218° |
| 2026-04-29 12:51 | 60.10840 | 5.43529 | 7099 ft | 191 kts | 218° |
| 2026-04-29 12:51 | 60.09854 | 5.41814 | 6790 ft | 185 kts | 238° |
| 2026-04-29 12:52 | 60.09543 | 5.39458 | 6413 ft | 176 kts | 285° |
| 2026-04-29 12:52 | 60.09939 | 5.37170 | 6108 ft | 174 kts | 289° |
| 2026-04-29 12:52 | 60.10215 | 5.34807 | 5800 ft | 174 kts | 283° |
| 2026-04-29 12:52 | 60.10441 | 5.32433 | 5534 ft | 173 kts | 282° |
| 2026-04-29 12:53 | 60.10695 | 5.30100 | 5251 ft | 170 kts | 289° |
| 2026-04-29 12:53 | 60.11298 | 5.28094 | 4890 ft | 171 kts | 323° |
| 2026-04-29 12:53 | 60.12434 | 5.27558 | 4585 ft | 172 kts | 2° |
| 2026-04-29 12:53 | 60.13618 | 5.27741 | 4247 ft | 169 kts | 353° |
| 2026-04-29 12:54 | 60.14704 | 5.26937 | 3847 ft | 166 kts | 328° |
| 2026-04-29 12:54 | 60.15697 | 5.25778 | 3472 ft | 164 kts | 337° |
| 2026-04-29 12:54 | 60.16770 | 5.25619 | 3168 ft | 158 kts | 13° |
| 2026-04-29 12:54 | 60.17804 | 5.26284 | 2887 ft | 148 kts | 14° |
| 2026-04-29 12:55 | 60.18810 | 5.26194 | 2462 ft | 149 kts | 343° |
| 2026-04-29 12:55 | 60.19772 | 5.25572 | 2402 ft | 146 kts | 341° |
| 2026-04-29 12:55 | 60.20748 | 5.24964 | 2399 ft | 148 kts | 348° |
| 2026-04-29 12:55 | 60.21758 | 5.24501 | 2372 ft | 149 kts | 350° |
| 2026-04-29 12:56 | 60.22788 | 5.24060 | 2069 ft | 153 kts | 355° |
| 2026-04-29 12:56 | 60.23836 | 5.23724 | 1592 ft | 151 kts | 354° |
| 2026-04-29 12:56 | 60.24852 | 5.23354 | 1193 ft | 145 kts | 355° |
| 2026-04-29 12:56 | 60.25835 | 5.23068 | 824 ft | 139 kts | 352° |
| 2026-04-29 12:57 | 60.26776 | 5.22702 | 567 ft | 135 kts | 349° |
| 2026-04-29 12:57 | 60.27708 | 5.22353 | 395 ft | 138 kts | 352° |
| 2026-04-29 12:57 | 60.28653 | 5.22038 | 212 ft | 136 kts | 349° |
| 2026-04-29 12:57 | 60.29540 | 5.21756 | 172 ft | 112 kts | 351° |
| 2026-04-29 12:58 | 60.30059 | 5.21581 | 171 ft | 48 kts | 350° |
| 2026-04-29 12:58 | 60.30321 | 5.21497 | 166 ft | 24 kts | 350° |
| 2026-04-29 12:58 | 60.30432 | 5.21569 | 169 ft | 17 kts | 67° |
| 2026-04-29 12:58 | 60.30428 | 5.21777 | 171 ft | 16 kts | 148° |
| 2026-04-29 12:59 | 60.30321 | 5.21817 | 170 ft | 16 kts | 170° |
| 2026-04-29 12:59 | 60.30207 | 5.21855 | 168 ft | 17 kts | 170° |
| 2026-04-29 12:59 | 60.30096 | 5.21892 | 170 ft | 16 kts | 170° |
| 2026-04-29 12:59 | 60.29982 | 5.21931 | 167 ft | 17 kts | 171° |
| 2026-04-29 13:00 | 60.29868 | 5.21965 | 168 ft | 17 kts | 171° |
| 2026-04-29 13:00 | 60.29729 | 5.22010 | 168 ft | 23 kts | 171° |
| 2026-04-29 13:00 | 60.29573 | 5.22059 | 172 ft | 22 kts | 171° |
| 2026-04-29 13:00 | 60.29422 | 5.22112 | 175 ft | 22 kts | 171° |
| 2026-04-29 13:01 | 60.29275 | 5.22162 | 177 ft | 21 kts | 170° |
| 2026-04-29 13:01 | 60.29132 | 5.22211 | 174 ft | 16 kts | 171° |
| 2026-04-29 13:01 | 60.29058 | 5.22350 | 173 ft | 16 kts | 148° |
| 2026-04-29 13:01 | 60.28965 | 5.22393 | 173 ft | 11 kts | 148° |
| 2026-04-29 13:02 | 60.28937 | 5.22521 | 173 ft | 7 kts | 107° |
| 2026-04-29 13:02 | 60.28933 | 5.22546 | 173 ft | 0 kts | 107° |
| 2026-04-29 13:02 | 60.28933 | 5.22543 | 173 ft | 0 kts | 107° |